sensor_id;sensor_type;location;lat;lon;timestamp;pressure;altitude;pressure_sealevel;temperature;humidity
51053;BME280;37093;37.716;-122.060;2023-01-15T00:00:05;98803.83;;;15.33;57.69
51053;BME280;37093;37.716;-122.060;2023-01-15T00:02:34;98801.19;;;14.35;59.64
51053;BME280;37093;37.716;-122.060;2023-01-15T00:05:03;98803.37;;;15.03;58.04
51053;BME280;37093;37.716;-122.060;2023-01-15T00:07:31;98798.09;;;13.85;62.11
51053;BME280;37093;37.716;-122.060;2023-01-15T00:10:00;98798.82;;;14.36;60.80
51053;BME280;37093;37.716;-122.060;2023-01-15T00:12:28;98800.55;;;14.68;59.70
51053;BME280;37093;37.716;-122.060;2023-01-15T00:14:57;98806.65;;;14.92;58.81
51053;BME280;37093;37.716;-122.060;2023-01-15T00:17:25;98812.40;;;15.21;58.04
51053;BME280;37093;37.716;-122.060;2023-01-15T00:19:53;98813.40;;;14.77;56.11
51053;BME280;37093;37.716;-122.060;2023-01-15T00:22:22;98805.16;;;15.14;52.22
51053;BME280;37093;37.716;-122.060;2023-01-15T00:24:50;98810.07;;;15.17;52.04
51053;BME280;37093;37.716;-122.060;2023-01-15T00:27:19;98810.72;;;15.52;49.09
51053;BME280;37093;37.716;-122.060;2023-01-15T00:29:47;98814.26;;;15.25;50.78
51053;BME280;37093;37.716;-122.060;2023-01-15T00:32:16;98826.07;;;14.86;51.64
51053;BME280;37093;37.716;-122.060;2023-01-15T00:34:44;98827.70;;;14.29;52.96
51053;BME280;37093;37.716;-122.060;2023-01-15T00:37:13;98828.86;;;15.32;49.19
51053;BME280;37093;37.716;-122.060;2023-01-15T00:39:41;98822.74;;;15.35;48.64
51053;BME280;37093;37.716;-122.060;2023-01-15T00:42:11;98817.97;;;15.28;50.30
51053;BME280;37093;37.716;-122.060;2023-01-15T00:44:39;98799.57;;;15.17;49.06
51053;BME280;37093;37.716;-122.060;2023-01-15T00:47:08;98796.09;;;15.51;47.83
51053;BME280;37093;37.716;-122.060;2023-01-15T00:49:36;98788.86;;;14.89;48.62
51053;BME280;37093;37.716;-122.060;2023-01-15T00:52:04;98789.58;;;15.05;49.12
51053;BME280;37093;37.716;-122.060;2023-01-15T00:54:33;98791.01;;;14.68;49.62
51053;BME280;37093;37.716;-122.060;2023-01-15T00:57:01;98785.13;;;15.21;49.25
51053;BME280;37093;37.716;-122.060;2023-01-15T00:59:30;98788.34;;;15.14;48.89
51053;BME280;37093;37.716;-122.060;2023-01-15T01:01:58;98789.58;;;15.15;50.10
51053;BME280;37093;37.716;-122.060;2023-01-15T01:04:26;98787.77;;;15.43;51.17
51053;BME280;37093;37.716;-122.060;2023-01-15T01:06:55;98781.49;;;15.50;48.61
51053;BME280;37093;37.716;-122.060;2023-01-15T01:09:23;98779.64;;;15.65;49.76
51053;BME280;37093;37.716;-122.060;2023-01-15T01:11:52;98776.96;;;16.04;49.12
51053;BME280;37093;37.716;-122.060;2023-01-15T01:14:21;98789.05;;;16.06;49.36
51053;BME280;37093;37.716;-122.060;2023-01-15T01:16:49;98804.94;;;15.79;51.17
51053;BME280;37093;37.716;-122.060;2023-01-15T01:19:21;98805.72;;;15.21;51.52
51053;BME280;37093;37.716;-122.060;2023-01-15T01:21:50;98787.80;;;15.34;52.37
51053;BME280;37093;37.716;-122.060;2023-01-15T01:24:21;98776.73;;;14.83;53.67
51053;BME280;37093;37.716;-122.060;2023-01-15T01:26:50;98781.44;;;14.67;53.78
51053;BME280;37093;37.716;-122.060;2023-01-15T01:29:20;98786.29;;;15.35;54.09
51053;BME280;37093;37.716;-122.060;2023-01-15T01:31:50;98782.09;;;15.61;53.73
51053;BME280;37093;37.716;-122.060;2023-01-15T01:34:18;98781.27;;;15.26;53.84
51053;BME280;37093;37.716;-122.060;2023-01-15T01:36:46;98800.03;;;15.59;53.51
51053;BME280;37093;37.716;-122.060;2023-01-15T01:39:17;98808.79;;;15.03;52.44
51053;BME280;37093;37.716;-122.060;2023-01-15T01:41:47;98814.36;;;15.17;52.27
51053;BME280;37093;37.716;-122.060;2023-01-15T01:45:25;98828.54;;;15.32;52.75
51053;BME280;37093;37.716;-122.060;2023-01-15T01:47:57;98829.63;;;14.77;54.16
51053;BME280;37093;37.716;-122.060;2023-01-15T01:50:28;98824.72;;;14.04;53.78
51053;BME280;37093;37.716;-122.060;2023-01-15T01:53:00;98839.41;;;14.09;56.17
51053;BME280;37093;37.716;-122.060;2023-01-15T01:55:32;98847.87;;;13.49;56.45
51053;BME280;37093;37.716;-122.060;2023-01-15T01:58:03;98862.60;;;11.17;64.38
51053;BME280;37093;37.716;-122.060;2023-01-15T02:00:33;98862.36;;;12.22;61.71
51053;BME280;37093;37.716;-122.060;2023-01-15T02:03:06;98861.48;;;12.23;60.86
51053;BME280;37093;37.716;-122.060;2023-01-15T02:05:38;98860.16;;;12.19;59.57
51053;BME280;37093;37.716;-122.060;2023-01-15T02:08:08;98865.89;;;12.20;60.44
51053;BME280;37093;37.716;-122.060;2023-01-15T02:10:37;98861.44;;;12.25;60.95
51053;BME280;37093;37.716;-122.060;2023-01-15T02:13:09;98858.86;;;12.25;60.95
51053;BME280;37093;37.716;-122.060;2023-01-15T02:15:43;98855.79;;;11.92;61.19
51053;BME280;37093;37.716;-122.060;2023-01-15T02:18:21;98848.86;;;12.64;59.10
51053;BME280;37093;37.716;-122.060;2023-01-15T02:20:53;98843.23;;;12.61;58.38
51053;BME280;37093;37.716;-122.060;2023-01-15T02:24:34;98844.69;;;13.11;57.16
51053;BME280;37093;37.716;-122.060;2023-01-15T02:27:14;98842.50;;;13.07;57.15
51053;BME280;37093;37.716;-122.060;2023-01-15T02:29:50;98843.93;;;12.74;57.42
51053;BME280;37093;37.716;-122.060;2023-01-15T02:32:30;98840.66;;;13.07;56.66
51053;BME280;37093;37.716;-122.060;2023-01-15T02:35:05;98844.45;;;12.50;57.27
51053;BME280;37093;37.716;-122.060;2023-01-15T02:37:38;98843.88;;;13.58;55.90
51053;BME280;37093;37.716;-122.060;2023-01-15T02:40:10;98842.15;;;13.27;55.79
51053;BME280;37093;37.716;-122.060;2023-01-15T02:42:41;98848.94;;;13.51;56.09
51053;BME280;37093;37.716;-122.060;2023-01-15T02:45:12;98849.64;;;13.66;56.17
51053;BME280;37093;37.716;-122.060;2023-01-15T02:47:43;98853.37;;;13.59;56.63
51053;BME280;37093;37.716;-122.060;2023-01-15T02:50:18;98857.40;;;13.54;56.48
51053;BME280;37093;37.716;-122.060;2023-01-15T02:52:56;98864.39;;;13.54;55.69
51053;BME280;37093;37.716;-122.060;2023-01-15T02:55:29;98865.03;;;13.27;56.64
51053;BME280;37093;37.716;-122.060;2023-01-15T02:58:01;98867.07;;;13.77;55.75
51053;BME280;37093;37.716;-122.060;2023-01-15T03:00:36;98873.25;;;13.38;56.48
51053;BME280;37093;37.716;-122.060;2023-01-15T03:03:09;98877.13;;;13.24;56.30
51053;BME280;37093;37.716;-122.060;2023-01-15T03:05:42;98877.00;;;13.57;55.93
51053;BME280;37093;37.716;-122.060;2023-01-15T03:08:12;98878.85;;;13.46;55.54
51053;BME280;37093;37.716;-122.060;2023-01-15T03:10:46;98883.15;;;13.98;55.17
51053;BME280;37093;37.716;-122.060;2023-01-15T03:13:19;98881.31;;;13.45;54.73
51053;BME280;37093;37.716;-122.060;2023-01-15T03:15:53;98880.62;;;13.52;55.94
51053;BME280;37093;37.716;-122.060;2023-01-15T03:18:24;98884.09;;;13.02;55.99
51053;BME280;37093;37.716;-122.060;2023-01-15T03:20:59;98883.71;;;14.03;55.22
51053;BME280;37093;37.716;-122.060;2023-01-15T03:23:31;98881.90;;;13.95;54.89
51053;BME280;37093;37.716;-122.060;2023-01-15T03:26:02;98880.65;;;13.38;54.69
51053;BME280;37093;37.716;-122.060;2023-01-15T03:28:34;98878.04;;;13.77;54.36
51053;BME280;37093;37.716;-122.060;2023-01-15T03:31:04;98870.58;;;13.72;54.80
51053;BME280;37093;37.716;-122.060;2023-01-15T03:33:33;98876.80;;;14.38;54.34
51053;BME280;37093;37.716;-122.060;2023-01-15T03:36:04;98885.10;;;14.16;54.65
51053;BME280;37093;37.716;-122.060;2023-01-15T03:38:34;98888.93;;;14.37;54.03
51053;BME280;37093;37.716;-122.060;2023-01-15T03:41:13;98883.75;;;14.30;53.86
51053;BME280;37093;37.716;-122.060;2023-01-15T03:43:51;98889.66;;;15.04;53.50
51053;BME280;37093;37.716;-122.060;2023-01-15T03:46:37;98891.01;;;14.30;53.93
51053;BME280;37093;37.716;-122.060;2023-01-15T03:49:14;98888.62;;;14.79;53.30
51053;BME280;37093;37.716;-122.060;2023-01-15T03:51:52;98894.13;;;14.90;53.15
51053;BME280;37093;37.716;-122.060;2023-01-15T03:54:29;98893.37;;;14.19;53.51
51053;BME280;37093;37.716;-122.060;2023-01-15T03:57:04;98893.43;;;14.38;53.42
51053;BME280;37093;37.716;-122.060;2023-01-15T03:59:38;98887.04;;;14.38;53.69
51053;BME280;37093;37.716;-122.060;2023-01-15T04:02:11;98885.69;;;14.51;53.67
51053;BME280;37093;37.716;-122.060;2023-01-15T04:04:41;98883.92;;;14.85;52.52
51053;BME280;37093;37.716;-122.060;2023-01-15T04:07:10;98882.60;;;14.26;53.35
51053;BME280;37093;37.716;-122.060;2023-01-15T04:09:39;98877.85;;;14.56;53.66
51053;BME280;37093;37.716;-122.060;2023-01-15T04:12:08;98882.57;;;14.68;53.71
51053;BME280;37093;37.716;-122.060;2023-01-15T04:14:36;98882.43;;;14.96;53.55
51053;BME280;37093;37.716;-122.060;2023-01-15T04:17:05;98883.80;;;14.82;53.61
51053;BME280;37093;37.716;-122.060;2023-01-15T04:19:33;98883.09;;;14.87;53.47
51053;BME280;37093;37.716;-122.060;2023-01-15T04:22:02;98880.60;;;14.89;53.29
51053;BME280;37093;37.716;-122.060;2023-01-15T04:24:30;98879.89;;;14.84;53.22
51053;BME280;37093;37.716;-122.060;2023-01-15T04:26:59;98877.05;;;14.81;53.62
51053;BME280;37093;37.716;-122.060;2023-01-15T04:29:27;98878.13;;;14.83;52.67
51053;BME280;37093;37.716;-122.060;2023-01-15T04:31:56;98880.25;;;14.56;53.00
51053;BME280;37093;37.716;-122.060;2023-01-15T04:34:25;98879.61;;;14.54;53.18
51053;BME280;37093;37.716;-122.060;2023-01-15T04:36:53;98881.08;;;14.77;53.09
51053;BME280;37093;37.716;-122.060;2023-01-15T04:39:22;98886.58;;;14.96;52.74
51053;BME280;37093;37.716;-122.060;2023-01-15T04:41:51;98884.51;;;14.16;53.51
51053;BME280;37093;37.716;-122.060;2023-01-15T04:44:19;98884.69;;;13.94;54.66
51053;BME280;37093;37.716;-122.060;2023-01-15T04:46:47;98885.05;;;14.48;54.37
51053;BME280;37093;37.716;-122.060;2023-01-15T04:49:17;98893.03;;;13.87;54.28
51053;BME280;37093;37.716;-122.060;2023-01-15T04:51:45;98894.50;;;14.52;53.82
51053;BME280;37093;37.716;-122.060;2023-01-15T04:54:15;98903.08;;;14.21;54.62
51053;BME280;37093;37.716;-122.060;2023-01-15T04:56:46;98911.08;;;13.92;54.70
51053;BME280;37093;37.716;-122.060;2023-01-15T04:59:16;98909.75;;;14.65;53.97
51053;BME280;37093;37.716;-122.060;2023-01-15T05:01:44;98905.84;;;14.26;53.57
51053;BME280;37093;37.716;-122.060;2023-01-15T05:04:12;98912.63;;;14.46;53.35
51053;BME280;37093;37.716;-122.060;2023-01-15T05:06:41;98909.95;;;14.29;53.73
51053;BME280;37093;37.716;-122.060;2023-01-15T05:09:09;98908.08;;;14.49;53.79
51053;BME280;37093;37.716;-122.060;2023-01-15T05:11:39;98907.56;;;14.37;54.02
51053;BME280;37093;37.716;-122.060;2023-01-15T05:14:08;98909.01;;;14.76;53.78
51053;BME280;37093;37.716;-122.060;2023-01-15T05:16:36;98902.02;;;14.85;53.47
51053;BME280;37093;37.716;-122.060;2023-01-15T05:19:05;98900.68;;;14.64;52.57
51053;BME280;37093;37.716;-122.060;2023-01-15T05:21:36;98904.43;;;14.57;52.97
51053;BME280;37093;37.716;-122.060;2023-01-15T05:24:09;98897.82;;;14.86;52.94
51053;BME280;37093;37.716;-122.060;2023-01-15T05:26:39;98895.27;;;14.72;53.22
51053;BME280;37093;37.716;-122.060;2023-01-15T05:29:08;98897.38;;;14.26;53.37
51053;BME280;37093;37.716;-122.060;2023-01-15T05:31:37;98903.72;;;14.77;53.16
51053;BME280;37093;37.716;-122.060;2023-01-15T05:34:06;98907.44;;;13.79;54.10
51053;BME280;37093;37.716;-122.060;2023-01-15T05:36:34;98905.08;;;14.23;53.81
51053;BME280;37093;37.716;-122.060;2023-01-15T05:39:04;98898.97;;;14.47;52.46
51053;BME280;37093;37.716;-122.060;2023-01-15T05:41:33;98894.90;;;14.37;53.50
51053;BME280;37093;37.716;-122.060;2023-01-15T05:44:05;98882.40;;;14.37;53.50
51053;BME280;37093;37.716;-122.060;2023-01-15T05:46:34;98883.25;;;14.23;53.29
51053;BME280;37093;37.716;-122.060;2023-01-15T05:49:05;98884.89;;;13.79;53.05
51053;BME280;37093;37.716;-122.060;2023-01-15T05:51:35;98889.85;;;14.17;53.59
51053;BME280;37093;37.716;-122.060;2023-01-15T05:54:05;98886.18;;;13.49;54.76
51053;BME280;37093;37.716;-122.060;2023-01-15T05:56:35;98884.81;;;14.11;54.11
51053;BME280;37093;37.716;-122.060;2023-01-15T05:59:04;98884.31;;;13.57;55.34
51053;BME280;37093;37.716;-122.060;2023-01-15T06:01:34;98886.99;;;13.47;56.63
51053;BME280;37093;37.716;-122.060;2023-01-15T06:04:05;98890.68;;;13.15;56.98
51053;BME280;37093;37.716;-122.060;2023-01-15T06:06:34;98897.30;;;13.63;56.76
51053;BME280;37093;37.716;-122.060;2023-01-15T06:09:03;98895.77;;;13.09;56.66
51053;BME280;37093;37.716;-122.060;2023-01-15T06:11:31;98891.86;;;13.73;55.29
51053;BME280;37093;37.716;-122.060;2023-01-15T06:13:59;98897.40;;;13.54;56.41
51053;BME280;37093;37.716;-122.060;2023-01-15T06:16:28;98895.99;;;13.01;55.19
51053;BME280;37093;37.716;-122.060;2023-01-15T06:19:00;98905.70;;;13.19;55.01
51053;BME280;37093;37.716;-122.060;2023-01-15T06:21:30;98909.14;;;12.90;56.78
51053;BME280;37093;37.716;-122.060;2023-01-15T06:23:58;98910.45;;;13.16;57.17
51053;BME280;37093;37.716;-122.060;2023-01-15T06:26:27;98911.84;;;13.04;56.95
51053;BME280;37093;37.716;-122.060;2023-01-15T06:28:55;98923.01;;;13.65;56.68
51053;BME280;37093;37.716;-122.060;2023-01-15T06:31:24;98919.93;;;13.16;57.31
51053;BME280;37093;37.716;-122.060;2023-01-15T06:33:53;98925.38;;;12.99;57.23
51053;BME280;37093;37.716;-122.060;2023-01-15T06:36:23;98933.25;;;13.17;57.22
51053;BME280;37093;37.716;-122.060;2023-01-15T06:38:52;98939.47;;;13.65;55.61
51053;BME280;37093;37.716;-122.060;2023-01-15T06:41:23;98939.62;;;13.62;56.91
51053;BME280;37093;37.716;-122.060;2023-01-15T06:43:51;98942.36;;;13.50;56.29
51053;BME280;37093;37.716;-122.060;2023-01-15T06:46:20;98941.28;;;13.96;55.87
51053;BME280;37093;37.716;-122.060;2023-01-15T06:48:48;98941.10;;;14.03;55.71
51053;BME280;37093;37.716;-122.060;2023-01-15T06:51:16;98941.65;;;14.17;54.66
51053;BME280;37093;37.716;-122.060;2023-01-15T06:53:45;98941.31;;;13.95;55.36
51053;BME280;37093;37.716;-122.060;2023-01-15T06:56:14;98940.08;;;13.50;55.05
51053;BME280;37093;37.716;-122.060;2023-01-15T06:58:43;98947.79;;;13.84;54.90
51053;BME280;37093;37.716;-122.060;2023-01-15T07:01:13;98953.46;;;14.44;54.59
51053;BME280;37093;37.716;-122.060;2023-01-15T07:03:42;98947.26;;;14.07;54.33
51053;BME280;37093;37.716;-122.060;2023-01-15T07:06:12;98946.27;;;14.41;54.82
51053;BME280;37093;37.716;-122.060;2023-01-15T07:08:40;98945.97;;;14.33;54.50
51053;BME280;37093;37.716;-122.060;2023-01-15T07:11:09;98941.18;;;14.24;54.59
51053;BME280;37093;37.716;-122.060;2023-01-15T07:13:38;98934.51;;;14.61;54.13
51053;BME280;37093;37.716;-122.060;2023-01-15T07:16:06;98931.08;;;14.44;53.84
51053;BME280;37093;37.716;-122.060;2023-01-15T07:18:35;98932.17;;;14.73;53.84
51053;BME280;37093;37.716;-122.060;2023-01-15T07:21:03;98936.20;;;14.61;53.83
51053;BME280;37093;37.716;-122.060;2023-01-15T07:23:31;98936.23;;;14.70;53.71
51053;BME280;37093;37.716;-122.060;2023-01-15T07:26:00;98938.12;;;14.69;53.40
51053;BME280;37093;37.716;-122.060;2023-01-15T07:28:28;98928.27;;;14.92;53.29
51053;BME280;37093;37.716;-122.060;2023-01-15T07:30:58;98926.67;;;14.66;53.17
51053;BME280;37093;37.716;-122.060;2023-01-15T07:33:27;98927.62;;;14.81;53.44
51053;BME280;37093;37.716;-122.060;2023-01-15T07:35:55;98926.29;;;14.59;53.41
51053;BME280;37093;37.716;-122.060;2023-01-15T07:38:24;98931.65;;;14.86;53.31
51053;BME280;37093;37.716;-122.060;2023-01-15T07:40:55;98933.44;;;14.60;53.16
51053;BME280;37093;37.716;-122.060;2023-01-15T07:43:24;98924.80;;;14.77;52.84
51053;BME280;37093;37.716;-122.060;2023-01-15T07:45:51;98930.97;;;14.54;52.71
51053;BME280;37093;37.716;-122.060;2023-01-15T07:48:20;98936.20;;;14.74;53.22
51053;BME280;37093;37.716;-122.060;2023-01-15T07:50:48;98944.08;;;14.48;53.51
51053;BME280;37093;37.716;-122.060;2023-01-15T07:53:17;98941.40;;;14.93;52.61
51053;BME280;37093;37.716;-122.060;2023-01-15T07:55:45;98941.20;;;14.42;53.56
51053;BME280;37093;37.716;-122.060;2023-01-15T07:58:14;98937.96;;;14.72;53.35
51053;BME280;37093;37.716;-122.060;2023-01-15T08:01:12;98955.41;;;13.61;52.31
51053;BME280;37093;37.716;-122.060;2023-01-15T08:03:41;98956.75;;;13.84;51.73
51053;BME280;37093;37.716;-122.060;2023-01-15T08:06:10;98957.08;;;15.39;50.07
51053;BME280;37093;37.716;-122.060;2023-01-15T08:08:38;98965.63;;;15.87;49.74
51053;BME280;37093;37.716;-122.060;2023-01-15T08:11:07;98961.31;;;15.06;51.14
51053;BME280;37093;37.716;-122.060;2023-01-15T08:13:35;98963.85;;;15.24;51.34
51053;BME280;37093;37.716;-122.060;2023-01-15T08:16:03;98969.77;;;14.78;52.32
51053;BME280;37093;37.716;-122.060;2023-01-15T08:18:31;98965.82;;;14.33;54.54
51053;BME280;37093;37.716;-122.060;2023-01-15T08:21:00;98961.07;;;13.99;53.56
51053;BME280;37093;37.716;-122.060;2023-01-15T08:23:28;98963.51;;;13.87;53.53
51053;BME280;37093;37.716;-122.060;2023-01-15T08:25:59;98965.73;;;13.97;54.58
51053;BME280;37093;37.716;-122.060;2023-01-15T08:28:27;98970.39;;;14.14;54.44
51053;BME280;37093;37.716;-122.060;2023-01-15T08:30:56;98964.73;;;14.13;54.81
51053;BME280;37093;37.716;-122.060;2023-01-15T08:33:24;98970.41;;;13.96;55.11
51053;BME280;37093;37.716;-122.060;2023-01-15T08:35:53;98978.23;;;14.23;54.86
51053;BME280;37093;37.716;-122.060;2023-01-15T08:38:21;98976.38;;;14.17;55.37
51053;BME280;37093;37.716;-122.060;2023-01-15T08:40:53;98974.72;;;14.04;55.46
51053;BME280;37093;37.716;-122.060;2023-01-15T08:43:21;98971.23;;;14.21;55.16
51053;BME280;37093;37.716;-122.060;2023-01-15T08:45:50;98985.20;;;14.18;55.29
51053;BME280;37093;37.716;-122.060;2023-01-15T08:48:19;98980.11;;;14.36;55.23
51053;BME280;37093;37.716;-122.060;2023-01-15T08:50:47;98977.14;;;14.52;54.91
51053;BME280;37093;37.716;-122.060;2023-01-15T08:53:16;98980.65;;;14.50;54.66
51053;BME280;37093;37.716;-122.060;2023-01-15T08:55:45;98989.81;;;14.63;53.72
51053;BME280;37093;37.716;-122.060;2023-01-15T08:58:14;98988.85;;;14.37;52.99
51053;BME280;37093;37.716;-122.060;2023-01-15T09:00:43;98984.97;;;14.57;53.61
51053;BME280;37093;37.716;-122.060;2023-01-15T09:03:11;98984.68;;;14.45;54.67
51053;BME280;37093;37.716;-122.060;2023-01-15T09:05:40;98984.57;;;14.18;54.78
51053;BME280;37093;37.716;-122.060;2023-01-15T09:08:09;98992.45;;;14.12;54.94
51053;BME280;37093;37.716;-122.060;2023-01-15T09:10:37;98996.77;;;14.25;54.53
51053;BME280;37093;37.716;-122.060;2023-01-15T09:13:06;99006.39;;;14.84;53.37
51053;BME280;37093;37.716;-122.060;2023-01-15T09:15:34;99011.75;;;14.54;54.27
51053;BME280;37093;37.716;-122.060;2023-01-15T09:18:03;99014.16;;;14.39;55.11
51053;BME280;37093;37.716;-122.060;2023-01-15T09:20:32;99015.36;;;14.56;54.90
51053;BME280;37093;37.716;-122.060;2023-01-15T09:23:00;99013.83;;;14.11;54.51
51053;BME280;37093;37.716;-122.060;2023-01-15T09:25:29;99002.48;;;14.21;54.35
51053;BME280;37093;37.716;-122.060;2023-01-15T09:27:57;99005.89;;;14.19;54.35
51053;BME280;37093;37.716;-122.060;2023-01-15T09:30:25;98993.30;;;14.88;52.81
51053;BME280;37093;37.716;-122.060;2023-01-15T09:32:54;98984.57;;;14.38;54.15
51053;BME280;37093;37.716;-122.060;2023-01-15T09:35:22;98978.51;;;14.74;54.44
51053;BME280;37093;37.716;-122.060;2023-01-15T09:37:51;98974.53;;;14.56;53.48
51053;BME280;37093;37.716;-122.060;2023-01-15T09:40:35;98972.63;;;14.13;54.54
51053;BME280;37093;37.716;-122.060;2023-01-15T09:43:13;98979.19;;;14.71;54.11
51053;BME280;37093;37.716;-122.060;2023-01-15T09:45:52;98979.52;;;14.35;54.08
51053;BME280;37093;37.716;-122.060;2023-01-15T09:48:34;98986.77;;;14.66;53.90
51053;BME280;37093;37.716;-122.060;2023-01-15T09:51:15;98988.83;;;14.33;53.56
51053;BME280;37093;37.716;-122.060;2023-01-15T09:53:54;98989.24;;;14.29;54.06
51053;BME280;37093;37.716;-122.060;2023-01-15T09:56:28;99000.11;;;14.82;53.74
51053;BME280;37093;37.716;-122.060;2023-01-15T09:58:59;99010.31;;;14.52;54.30
51053;BME280;37093;37.716;-122.060;2023-01-15T10:01:33;99018.22;;;14.60;53.51
51053;BME280;37093;37.716;-122.060;2023-01-15T10:04:08;99025.95;;;14.65;53.31
51053;BME280;37093;37.716;-122.060;2023-01-15T10:06:44;99032.61;;;14.87;54.46
51053;BME280;37093;37.716;-122.060;2023-01-15T10:09:20;99037.40;;;14.52;54.23
51053;BME280;37093;37.716;-122.060;2023-01-15T10:11:54;99041.02;;;14.78;54.12
51053;BME280;37093;37.716;-122.060;2023-01-15T10:14:36;99045.30;;;14.41;54.12
51053;BME280;37093;37.716;-122.060;2023-01-15T10:17:20;99055.54;;;14.80;54.27
51053;BME280;37093;37.716;-122.060;2023-01-15T10:19:51;99055.20;;;14.74;54.65
51053;BME280;37093;37.716;-122.060;2023-01-15T10:22:30;99057.52;;;14.01;55.28
51053;BME280;37093;37.716;-122.060;2023-01-15T10:25:06;99062.90;;;14.26;54.66
51053;BME280;37093;37.716;-122.060;2023-01-15T10:27:37;99058.89;;;14.35;55.28
51053;BME280;37093;37.716;-122.060;2023-01-15T10:30:15;99064.80;;;14.45;55.02
51053;BME280;37093;37.716;-122.060;2023-01-15T10:32:45;99062.26;;;14.15;54.17
51053;BME280;37093;37.716;-122.060;2023-01-15T10:35:26;99066.04;;;14.27;54.26
51053;BME280;37093;37.716;-122.060;2023-01-15T10:38:04;99073.47;;;14.40;53.89
51053;BME280;37093;37.716;-122.060;2023-01-15T10:40:55;99068.97;;;14.45;54.14
51053;BME280;37093;37.716;-122.060;2023-01-15T10:43:38;99060.88;;;14.32;53.98
51053;BME280;37093;37.716;-122.060;2023-01-15T10:46:13;99059.30;;;14.60;53.43
51053;BME280;37093;37.716;-122.060;2023-01-15T10:48:45;99060.11;;;14.68;53.29
51053;BME280;37093;37.716;-122.060;2023-01-15T10:51:17;99061.77;;;14.63;52.22
51053;BME280;37093;37.716;-122.060;2023-01-15T10:53:50;99057.36;;;14.66;53.09
51053;BME280;37093;37.716;-122.060;2023-01-15T10:56:29;99057.11;;;14.69;52.72
51053;BME280;37093;37.716;-122.060;2023-01-15T10:59:05;99067.01;;;14.75;52.83
51053;BME280;37093;37.716;-122.060;2023-01-15T11:01:38;99079.40;;;14.47;53.28
51053;BME280;37093;37.716;-122.060;2023-01-15T11:04:08;99070.48;;;14.29;54.35
51053;BME280;37093;37.716;-122.060;2023-01-15T11:06:37;99070.36;;;14.05;55.15
51053;BME280;37093;37.716;-122.060;2023-01-15T11:09:08;99074.71;;;14.04;55.09
51053;BME280;37093;37.716;-122.060;2023-01-15T11:11:43;99073.74;;;14.13;54.43
51053;BME280;37093;37.716;-122.060;2023-01-15T11:14:12;99074.07;;;14.00;54.78
51053;BME280;37093;37.716;-122.060;2023-01-15T11:16:42;99074.43;;;14.15;54.67
51053;BME280;37093;37.716;-122.060;2023-01-15T11:19:20;99074.98;;;14.23;54.05
51053;BME280;37093;37.716;-122.060;2023-01-15T11:21:52;99077.01;;;14.04;54.22
51053;BME280;37093;37.716;-122.060;2023-01-15T11:24:20;99076.71;;;14.32;54.22
51053;BME280;37093;37.716;-122.060;2023-01-15T11:26:51;99065.63;;;14.49;53.84
51053;BME280;37093;37.716;-122.060;2023-01-15T11:29:28;99059.10;;;14.61;52.70
51053;BME280;37093;37.716;-122.060;2023-01-15T11:31:58;99051.69;;;14.83;53.44
51053;BME280;37093;37.716;-122.060;2023-01-15T11:34:27;99053.43;;;14.89;53.30
51053;BME280;37093;37.716;-122.060;2023-01-15T11:37:04;99059.42;;;14.52;53.77
51053;BME280;37093;37.716;-122.060;2023-01-15T11:39:32;99070.73;;;14.41;53.38
51053;BME280;37093;37.716;-122.060;2023-01-15T11:42:02;99065.66;;;14.30;53.88
51053;BME280;37093;37.716;-122.060;2023-01-15T11:44:31;99062.68;;;14.33;53.38
51053;BME280;37093;37.716;-122.060;2023-01-15T11:47:00;99063.60;;;14.41;53.19
51053;BME280;37093;37.716;-122.060;2023-01-15T11:49:29;99060.66;;;14.55;53.49
51053;BME280;37093;37.716;-122.060;2023-01-15T11:51:59;99055.03;;;14.47;53.13
51053;BME280;37093;37.716;-122.060;2023-01-15T11:54:29;99047.63;;;14.86;52.07
51053;BME280;37093;37.716;-122.060;2023-01-15T11:56:59;99046.58;;;14.07;53.77
51053;BME280;37093;37.716;-122.060;2023-01-15T11:59:27;99047.85;;;14.06;53.51
51053;BME280;37093;37.716;-122.060;2023-01-15T12:01:58;99051.79;;;13.64;54.04
51053;BME280;37093;37.716;-122.060;2023-01-15T12:04:34;99055.33;;;14.40;53.59
51053;BME280;37093;37.716;-122.060;2023-01-15T12:07:05;99046.92;;;14.35;52.68
51053;BME280;37093;37.716;-122.060;2023-01-15T12:09:54;99029.43;;;14.59;52.62
51053;BME280;37093;37.716;-122.060;2023-01-15T12:12:36;99020.67;;;14.23;52.33
51053;BME280;37093;37.716;-122.060;2023-01-15T12:15:16;99014.58;;;14.40;51.99
51053;BME280;37093;37.716;-122.060;2023-01-15T12:18:00;99017.39;;;14.08;52.01
51053;BME280;37093;37.716;-122.060;2023-01-15T12:20:47;99027.05;;;14.32;52.33
51053;BME280;37093;37.716;-122.060;2023-01-15T12:23:40;99028.84;;;14.31;53.09
51053;BME280;37093;37.716;-122.060;2023-01-15T12:26:20;99031.32;;;14.09;52.11
51053;BME280;37093;37.716;-122.060;2023-01-15T12:28:57;99028.21;;;14.40;51.89
51053;BME280;37093;37.716;-122.060;2023-01-15T12:31:32;99026.44;;;13.93;52.58
51053;BME280;37093;37.716;-122.060;2023-01-15T12:34:11;99023.39;;;13.96;52.38
51053;BME280;37093;37.716;-122.060;2023-01-15T12:36:46;99015.91;;;13.95;52.94
51053;BME280;37093;37.716;-122.060;2023-01-15T12:39:21;99013.65;;;13.44;52.84
51053;BME280;37093;37.716;-122.060;2023-01-15T12:41:55;99018.26;;;13.84;52.76
51053;BME280;37093;37.716;-122.060;2023-01-15T12:44:33;99014.83;;;13.18;53.68
51053;BME280;37093;37.716;-122.060;2023-01-15T12:47:08;99024.96;;;13.91;53.85
51053;BME280;37093;37.716;-122.060;2023-01-15T12:49:43;99025.94;;;14.09;52.73
51053;BME280;37093;37.716;-122.060;2023-01-15T12:52:20;99026.08;;;14.14;52.96